sensor_id;sensor_type;location;lat;lon;timestamp;temperature;humidity
59282;DHT22;45054;52.062;10.010;2024-02-26T00:00:52;2.30;99.90
59282;DHT22;45054;52.062;10.010;2024-02-26T00:03:18;2.30;99.90
59282;DHT22;45054;52.062;10.010;2024-02-26T00:05:43;2.20;99.90
59282;DHT22;45054;52.062;10.010;2024-02-26T00:08:09;2.20;99.90
59282;DHT22;45054;52.062;10.010;2024-02-26T00:10:34;2.20;99.90
59282;DHT22;45054;52.062;10.010;2024-02-26T00:13:01;2.20;99.90
59282;DHT22;45054;52.062;10.010;2024-02-26T00:15:27;2.10;99.90
59282;DHT22;45054;52.062;10.010;2024-02-26T00:17:53;2.10;99.90
59282;DHT22;45054;52.062;10.010;2024-02-26T00:20:18;2.10;99.90
59282;DHT22;45054;52.062;10.010;2024-02-26T00:22:44;2.10;99.90
59282;DHT22;45054;52.062;10.010;2024-02-26T00:25:09;2.10;99.90
59282;DHT22;45054;52.062;10.010;2024-02-26T00:27:35;2.00;99.90
59282;DHT22;45054;52.062;10.010;2024-02-26T00:30:02;2.00;99.90
59282;DHT22;45054;52.062;10.010;2024-02-26T00:32:28;1.90;99.90
59282;DHT22;45054;52.062;10.010;2024-02-26T00:34:53;1.90;99.90
59282;DHT22;45054;52.062;10.010;2024-02-26T00:37:19;1.90;99.90
59282;DHT22;45054;52.062;10.010;2024-02-26T00:39:44;1.90;99.90
59282;DHT22;45054;52.062;10.010;2024-02-26T00:42:10;1.90;99.90
59282;DHT22;45054;52.062;10.010;2024-02-26T00:44:35;1.90;99.90
59282;DHT22;45054;52.062;10.010;2024-02-26T00:47:03;2.00;99.90
59282;DHT22;45054;52.062;10.010;2024-02-26T00:49:28;2.00;99.90
59282;DHT22;45054;52.062;10.010;2024-02-26T00:51:54;2.10;99.90
59282;DHT22;45054;52.062;10.010;2024-02-26T00:54:19;2.10;99.90
59282;DHT22;45054;52.062;10.010;2024-02-26T00:56:45;2.00;99.90
59282;DHT22;45054;52.062;10.010;2024-02-26T00:59:11;2.00;99.90
59282;DHT22;45054;52.062;10.010;2024-02-26T01:01:36;2.00;99.90
59282;DHT22;45054;52.062;10.010;2024-02-26T01:04:03;2.10;99.90
59282;DHT22;45054;52.062;10.010;2024-02-26T01:06:29;2.10;99.90
59282;DHT22;45054;52.062;10.010;2024-02-26T01:08:54;2.10;99.90
59282;DHT22;45054;52.062;10.010;2024-02-26T01:11:20;2.10;99.90
59282;DHT22;45054;52.062;10.010;2024-02-26T01:13:45;2.20;99.90
59282;DHT22;45054;52.062;10.010;2024-02-26T01:16:11;2.20;99.90
59282;DHT22;45054;52.062;10.010;2024-02-26T01:18:36;2.20;99.90
59282;DHT22;45054;52.062;10.010;2024-02-26T01:21:04;2.10;99.90
59282;DHT22;45054;52.062;10.010;2024-02-26T01:23:29;2.10;99.90
59282;DHT22;45054;52.062;10.010;2024-02-26T01:25:55;2.10;99.90
59282;DHT22;45054;52.062;10.010;2024-02-26T01:28:20;2.10;99.90
59282;DHT22;45054;52.062;10.010;2024-02-26T01:30:46;2.10;99.90
59282;DHT22;45054;52.062;10.010;2024-02-26T01:33:11;2.10;99.90
59282;DHT22;45054;52.062;10.010;2024-02-26T01:35:37;2.10;99.90
59282;DHT22;45054;52.062;10.010;2024-02-26T01:38:04;2.10;99.90
59282;DHT22;45054;52.062;10.010;2024-02-26T01:40:30;2.10;99.90
59282;DHT22;45054;52.062;10.010;2024-02-26T01:42:55;2.10;99.90
59282;DHT22;45054;52.062;10.010;2024-02-26T01:45:21;2.10;99.90
59282;DHT22;45054;52.062;10.010;2024-02-26T01:47:48;2.10;99.90
59282;DHT22;45054;52.062;10.010;2024-02-26T01:50:15;2.10;99.90
59282;DHT22;45054;52.062;10.010;2024-02-26T01:52:40;2.10;99.90
59282;DHT22;45054;52.062;10.010;2024-02-26T01:55:08;2.10;99.90
59282;DHT22;45054;52.062;10.010;2024-02-26T01:57:33;2.10;99.90
59282;DHT22;45054;52.062;10.010;2024-02-26T01:59:59;2.10;99.90
59282;DHT22;45054;52.062;10.010;2024-02-26T02:02:25;2.10;99.90
59282;DHT22;45054;52.062;10.010;2024-02-26T02:04:51;2.10;99.90
59282;DHT22;45054;52.062;10.010;2024-02-26T02:07:18;2.00;99.90
59282;DHT22;45054;52.062;10.010;2024-02-26T02:09:44;2.00;99.90
59282;DHT22;45054;52.062;10.010;2024-02-26T02:12:11;2.00;99.90
59282;DHT22;45054;52.062;10.010;2024-02-26T02:14:37;2.00;99.90
59282;DHT22;45054;52.062;10.010;2024-02-26T02:17:03;2.00;99.90
59282;DHT22;45054;52.062;10.010;2024-02-26T02:19:28;2.00;99.90
59282;DHT22;45054;52.062;10.010;2024-02-26T02:21:55;1.90;99.90
59282;DHT22;45054;52.062;10.010;2024-02-26T02:24:21;1.90;99.90
59282;DHT22;45054;52.062;10.010;2024-02-26T02:26:46;1.90;99.90
59282;DHT22;45054;52.062;10.010;2024-02-26T02:29:13;1.90;99.90
59282;DHT22;45054;52.062;10.010;2024-02-26T02:31:39;1.90;99.90
59282;DHT22;45054;52.062;10.010;2024-02-26T02:34:05;1.90;99.90
59282;DHT22;45054;52.062;10.010;2024-02-26T02:36:30;1.90;99.90
59282;DHT22;45054;52.062;10.010;2024-02-26T02:38:57;1.90;99.90
59282;DHT22;45054;52.062;10.010;2024-02-26T02:41:23;1.90;99.90
59282;DHT22;45054;52.062;10.010;2024-02-26T02:43:48;1.90;99.90
59282;DHT22;45054;52.062;10.010;2024-02-26T02:46:14;1.90;99.90
59282;DHT22;45054;52.062;10.010;2024-02-26T02:48:41;1.90;99.90
59282;DHT22;45054;52.062;10.010;2024-02-26T02:51:07;1.90;99.90
59282;DHT22;45054;52.062;10.010;2024-02-26T02:53:33;2.00;99.90
59282;DHT22;45054;52.062;10.010;2024-02-26T02:55:59;2.00;99.90
59282;DHT22;45054;52.062;10.010;2024-02-26T02:58:25;2.00;99.90
59282;DHT22;45054;52.062;10.010;2024-02-26T03:00:51;2.00;99.90
59282;DHT22;45054;52.062;10.010;2024-02-26T03:03:16;2.00;99.90
59282;DHT22;45054;52.062;10.010;2024-02-26T03:05:42;2.00;99.90
59282;DHT22;45054;52.062;10.010;2024-02-26T03:08:07;2.10;99.90
59282;DHT22;45054;52.062;10.010;2024-02-26T03:10:33;2.10;99.90
59282;DHT22;45054;52.062;10.010;2024-02-26T03:13:00;2.10;99.90
59282;DHT22;45054;52.062;10.010;2024-02-26T03:15:25;2.10;99.90
59282;DHT22;45054;52.062;10.010;2024-02-26T03:17:51;2.10;99.90
59282;DHT22;45054;52.062;10.010;2024-02-26T03:20:17;2.10;99.90
59282;DHT22;45054;52.062;10.010;2024-02-26T03:22:42;2.10;99.90
59282;DHT22;45054;52.062;10.010;2024-02-26T03:25:08;2.10;99.90
59282;DHT22;45054;52.062;10.010;2024-02-26T03:27:34;2.10;99.90
59282;DHT22;45054;52.062;10.010;2024-02-26T03:30:01;2.20;99.90
59282;DHT22;45054;52.062;10.010;2024-02-26T03:32:26;2.20;99.90
59282;DHT22;45054;52.062;10.010;2024-02-26T03:34:52;2.40;99.90
59282;DHT22;45054;52.062;10.010;2024-02-26T03:37:17;2.60;99.90
59282;DHT22;45054;52.062;10.010;2024-02-26T03:39:43;2.80;99.90
59282;DHT22;45054;52.062;10.010;2024-02-26T03:42:08;3.00;99.90
59282;DHT22;45054;52.062;10.010;2024-02-26T03:44:34;3.10;99.90
59282;DHT22;45054;52.062;10.010;2024-02-26T03:47:01;3.20;99.90
59282;DHT22;45054;52.062;10.010;2024-02-26T03:49:26;3.30;99.90
59282;DHT22;45054;52.062;10.010;2024-02-26T03:51:52;3.30;99.90
59282;DHT22;45054;52.062;10.010;2024-02-26T03:54:17;3.30;99.90
59282;DHT22;45054;52.062;10.010;2024-02-26T03:56:43;3.30;99.90
59282;DHT22;45054;52.062;10.010;2024-02-26T03:59:08;3.30;99.90
59282;DHT22;45054;52.062;10.010;2024-02-26T04:01:34;3.20;99.90
59282;DHT22;45054;52.062;10.010;2024-02-26T04:04:01;3.30;99.90
59282;DHT22;45054;52.062;10.010;2024-02-26T04:06:26;3.40;99.90
59282;DHT22;45054;52.062;10.010;2024-02-26T04:08:52;3.50;99.90
59282;DHT22;45054;52.062;10.010;2024-02-26T04:11:18;3.50;99.90
59282;DHT22;45054;52.062;10.010;2024-02-26T04:13:43;3.50;99.90
59282;DHT22;45054;52.062;10.010;2024-02-26T04:16:09;3.40;99.90
59282;DHT22;45054;52.062;10.010;2024-02-26T04:18:34;3.40;99.90
59282;DHT22;45054;52.062;10.010;2024-02-26T04:21:01;3.30;99.90
59282;DHT22;45054;52.062;10.010;2024-02-26T04:23:27;3.20;99.90
59282;DHT22;45054;52.062;10.010;2024-02-26T04:25:52;3.10;99.90
59282;DHT22;45054;52.062;10.010;2024-02-26T04:28:18;3.10;99.90
59282;DHT22;45054;52.062;10.010;2024-02-26T04:30:44;3.10;99.90
59282;DHT22;45054;52.062;10.010;2024-02-26T04:33:09;3.20;99.90
59282;DHT22;45054;52.062;10.010;2024-02-26T04:35:35;3.20;99.90
59282;DHT22;45054;52.062;10.010;2024-02-26T04:38:02;3.20;99.90
59282;DHT22;45054;52.062;10.010;2024-02-26T04:40:27;3.20;99.90
59282;DHT22;45054;52.062;10.010;2024-02-26T04:42:53;3.10;99.90
59282;DHT22;45054;52.062;10.010;2024-02-26T04:45:18;3.10;99.90
59282;DHT22;45054;52.062;10.010;2024-02-26T04:47:44;3.10;99.90
59282;DHT22;45054;52.062;10.010;2024-02-26T04:50:09;3.20;99.90
59282;DHT22;45054;52.062;10.010;2024-02-26T04:52:35;3.10;99.90
59282;DHT22;45054;52.062;10.010;2024-02-26T04:55:02;3.20;99.90
59282;DHT22;45054;52.062;10.010;2024-02-26T04:57:28;3.20;99.90
59282;DHT22;45054;52.062;10.010;2024-02-26T04:59:54;3.20;99.90
59282;DHT22;45054;52.062;10.010;2024-02-26T05:02:20;3.30;99.90
59282;DHT22;45054;52.062;10.010;2024-02-26T05:04:45;3.30;99.90
59282;DHT22;45054;52.062;10.010;2024-02-26T05:07:11;3.30;99.90
59282;DHT22;45054;52.062;10.010;2024-02-26T05:09:37;3.30;99.90
59282;DHT22;45054;52.062;10.010;2024-02-26T05:12:04;3.40;99.90
59282;DHT22;45054;52.062;10.010;2024-02-26T05:14:30;3.40;99.90
59282;DHT22;45054;52.062;10.010;2024-02-26T05:16:55;3.40;99.90
59282;DHT22;45054;52.062;10.010;2024-02-26T05:19:21;3.40;99.90
59282;DHT22;45054;52.062;10.010;2024-02-26T05:21:47;3.50;99.90
59282;DHT22;45054;52.062;10.010;2024-02-26T05:24:12;3.50;99.90
59282;DHT22;45054;52.062;10.010;2024-02-26T05:26:38;3.50;99.90
59282;DHT22;45054;52.062;10.010;2024-02-26T05:29:05;3.50;99.90
59282;DHT22;45054;52.062;10.010;2024-02-26T05:31:30;3.50;99.90
59282;DHT22;45054;52.062;10.010;2024-02-26T05:33:56;3.40;99.90
59282;DHT22;45054;52.062;10.010;2024-02-26T05:36:22;3.40;99.90
59282;DHT22;45054;52.062;10.010;2024-02-26T05:38:47;3.40;99.90
59282;DHT22;45054;52.062;10.010;2024-02-26T05:41:14;3.40;99.90
59282;DHT22;45054;52.062;10.010;2024-02-26T05:43:40;3.50;99.90
59282;DHT22;45054;52.062;10.010;2024-02-26T05:46:07;3.50;99.90
59282;DHT22;45054;52.062;10.010;2024-02-26T05:48:33;3.50;99.90
59282;DHT22;45054;52.062;10.010;2024-02-26T05:50:58;3.50;99.90
59282;DHT22;45054;52.062;10.010;2024-02-26T05:53:24;3.50;99.90
59282;DHT22;45054;52.062;10.010;2024-02-26T05:55:49;3.50;99.90
59282;DHT22;45054;52.062;10.010;2024-02-26T05:58:15;3.60;99.90
59282;DHT22;45054;52.062;10.010;2024-02-26T06:00:40;3.60;99.90
59282;DHT22;45054;52.062;10.010;2024-02-26T06:03:07;3.60;99.90
59282;DHT22;45054;52.062;10.010;2024-02-26T06:05:33;3.60;99.90
59282;DHT22;45054;52.062;10.010;2024-02-26T06:07:58;3.70;99.90
59282;DHT22;45054;52.062;10.010;2024-02-26T06:10:24;3.70;99.90
59282;DHT22;45054;52.062;10.010;2024-02-26T06:12:49;3.60;99.90
59282;DHT22;45054;52.062;10.010;2024-02-26T06:15:15;3.70;99.90
59282;DHT22;45054;52.062;10.010;2024-02-26T06:17:40;3.70;99.90
59282;DHT22;45054;52.062;10.010;2024-02-26T06:20:08;3.80;99.90
59282;DHT22;45054;52.062;10.010;2024-02-26T06:22:34;3.80;99.90
59282;DHT22;45054;52.062;10.010;2024-02-26T06:24:59;3.90;99.90
59282;DHT22;45054;52.062;10.010;2024-02-26T06:27:25;3.90;99.90
59282;DHT22;45054;52.062;10.010;2024-02-26T06:29:50;4.00;99.90
59282;DHT22;45054;52.062;10.010;2024-02-26T06:32:16;4.10;99.90
59282;DHT22;45054;52.062;10.010;2024-02-26T06:34:42;4.10;99.90
59282;DHT22;45054;52.062;10.010;2024-02-26T06:37:09;4.10;99.90
59282;DHT22;45054;52.062;10.010;2024-02-26T06:39:34;4.10;99.90
59282;DHT22;45054;52.062;10.010;2024-02-26T06:42:00;4.20;99.90
59282;DHT22;45054;52.062;10.010;2024-02-26T06:44:25;4.20;99.90
59282;DHT22;45054;52.062;10.010;2024-02-26T06:46:51;4.20;99.90
59282;DHT22;45054;52.062;10.010;2024-02-26T06:49:17;4.30;99.90
59282;DHT22;45054;52.062;10.010;2024-02-26T06:51:42;4.40;99.90
59282;DHT22;45054;52.062;10.010;2024-02-26T06:54:09;4.40;99.90
59282;DHT22;45054;52.062;10.010;2024-02-26T06:56:35;4.40;99.90
59282;DHT22;45054;52.062;10.010;2024-02-26T06:59:00;4.50;99.90
59282;DHT22;45054;52.062;10.010;2024-02-26T07:01:26;4.50;99.90
59282;DHT22;45054;52.062;10.010;2024-02-26T07:03:51;4.50;99.90
59282;DHT22;45054;52.062;10.010;2024-02-26T07:06:17;4.50;99.90
59282;DHT22;45054;52.062;10.010;2024-02-26T07:08:42;4.50;99.90
59282;DHT22;45054;52.062;10.010;2024-02-26T07:11:10;4.60;99.90
59282;DHT22;45054;52.062;10.010;2024-02-26T07:13:36;4.60;99.90
59282;DHT22;45054;52.062;10.010;2024-02-26T07:16:01;4.60;99.90
59282;DHT22;45054;52.062;10.010;2024-02-26T07:18:27;4.70;99.90
59282;DHT22;45054;52.062;10.010;2024-02-26T07:20:53;4.80;99.90
59282;DHT22;45054;52.062;10.010;2024-02-26T07:23:18;4.80;99.90
59282;DHT22;45054;52.062;10.010;2024-02-26T07:25:44;4.90;99.90
59282;DHT22;45054;52.062;10.010;2024-02-26T07:28:11;5.00;99.90
59282;DHT22;45054;52.062;10.010;2024-02-26T07:30:36;5.00;99.90
59282;DHT22;45054;52.062;10.010;2024-02-26T07:33:02;5.00;99.90
59282;DHT22;45054;52.062;10.010;2024-02-26T07:35:28;5.10;99.90
59282;DHT22;45054;52.062;10.010;2024-02-26T07:37:53;5.10;99.90
59282;DHT22;45054;52.062;10.010;2024-02-26T07:40:19;5.10;99.90
59282;DHT22;45054;52.062;10.010;2024-02-26T07:42:44;5.10;99.90
59282;DHT22;45054;52.062;10.010;2024-02-26T07:45:11;5.00;99.90
59282;DHT22;45054;52.062;10.010;2024-02-26T07:47:37;5.10;99.90
59282;DHT22;45054;52.062;10.010;2024-02-26T07:50:03;5.10;99.90
59282;DHT22;45054;52.062;10.010;2024-02-26T07:52:28;5.10;99.90
59282;DHT22;45054;52.062;10.010;2024-02-26T07:54:54;5.10;99.90
59282;DHT22;45054;52.062;10.010;2024-02-26T07:57:19;5.10;99.90
59282;DHT22;45054;52.062;10.010;2024-02-26T07:59:45;5.00;99.90
59282;DHT22;45054;52.062;10.010;2024-02-26T08:02:12;5.10;99.90
59282;DHT22;45054;52.062;10.010;2024-02-26T08:04:38;5.10;99.90
59282;DHT22;45054;52.062;10.010;2024-02-26T08:07:03;5.10;99.90
59282;DHT22;45054;52.062;10.010;2024-02-26T08:09:29;5.10;99.90
59282;DHT22;45054;52.062;10.010;2024-02-26T08:11:54;5.20;99.90
59282;DHT22;45054;52.062;10.010;2024-02-26T08:14:20;5.20;99.90
59282;DHT22;45054;52.062;10.010;2024-02-26T08:16:45;5.20;99.90
59282;DHT22;45054;52.062;10.010;2024-02-26T08:19:13;5.30;99.90
59282;DHT22;45054;52.062;10.010;2024-02-26T08:21:38;5.30;99.90
59282;DHT22;45054;52.062;10.010;2024-02-26T08:24:04;5.30;99.90
59282;DHT22;45054;52.062;10.010;2024-02-26T08:26:30;5.30;99.90
59282;DHT22;45054;52.062;10.010;2024-02-26T08:28:55;5.30;99.90
59282;DHT22;45054;52.062;10.010;2024-02-26T08:31:21;5.30;99.90
59282;DHT22;45054;52.062;10.010;2024-02-26T08:33:47;5.30;99.90
59282;DHT22;45054;52.062;10.010;2024-02-26T08:36:13;5.30;99.90
59282;DHT22;45054;52.062;10.010;2024-02-26T08:38:39;5.40;99.90
59282;DHT22;45054;52.062;10.010;2024-02-26T08:41:05;5.40;99.90
59282;DHT22;45054;52.062;10.010;2024-02-26T08:43:31;5.50;99.90
59282;DHT22;45054;52.062;10.010;2024-02-26T08:45:56;5.50;99.90
59282;DHT22;45054;52.062;10.010;2024-02-26T08:48:22;5.50;99.90
59282;DHT22;45054;52.062;10.010;2024-02-26T08:50:47;5.50;99.90
59282;DHT22;45054;52.062;10.010;2024-02-26T08:53:14;5.60;99.90
59282;DHT22;45054;52.062;10.010;2024-02-26T08:55:40;5.60;99.90
59282;DHT22;45054;52.062;10.010;2024-02-26T08:58:06;5.60;99.90
59282;DHT22;45054;52.062;10.010;2024-02-26T09:00:31;5.70;99.90
59282;DHT22;45054;52.062;10.010;2024-02-26T09:02:57;5.70;99.90
59282;DHT22;45054;52.062;10.010;2024-02-26T09:05:22;5.80;99.90
59282;DHT22;45054;52.062;10.010;2024-02-26T09:07:48;5.80;99.90
59282;DHT22;45054;52.062;10.010;2024-02-26T09:10:15;5.80;99.90
59282;DHT22;45054;52.062;10.010;2024-02-26T09:12:40;5.90;99.90
59282;DHT22;45054;52.062;10.010;2024-02-26T09:15:07;5.90;99.90
59282;DHT22;45054;52.062;10.010;2024-02-26T09:17:32;5.90;99.90
59282;DHT22;45054;52.062;10.010;2024-02-26T09:19:58;6.00;99.90
59282;DHT22;45054;52.062;10.010;2024-02-26T09:22:24;6.00;99.90
59282;DHT22;45054;52.062;10.010;2024-02-26T09:24:49;6.00;99.90
59282;DHT22;45054;52.062;10.010;2024-02-26T09:27:16;6.00;99.90
59282;DHT22;45054;52.062;10.010;2024-02-26T09:29:42;6.00;99.90
59282;DHT22;45054;52.062;10.010;2024-02-26T09:32:07;6.00;99.90
59282;DHT22;45054;52.062;10.010;2024-02-26T09:34:33;6.00;99.90
59282;DHT22;45054;52.062;10.010;2024-02-26T09:36:58;6.00;99.90
59282;DHT22;45054;52.062;10.010;2024-02-26T09:39:24;6.00;99.90
59282;DHT22;45054;52.062;10.010;2024-02-26T09:41:50;6.10;99.90
59282;DHT22;45054;52.062;10.010;2024-02-26T09:44:19;6.10;99.90
59282;DHT22;45054;52.062;10.010;2024-02-26T09:46:45;6.10;99.90
59282;DHT22;45054;52.062;10.010;2024-02-26T09:49:11;6.10;99.90
59282;DHT22;45054;52.062;10.010;2024-02-26T09:51:38;6.10;99.90
59282;DHT22;45054;52.062;10.010;2024-02-26T09:54:04;6.10;99.90
59282;DHT22;45054;52.062;10.010;2024-02-26T09:56:32;6.10;99.90
59282;DHT22;45054;52.062;10.010;2024-02-26T09:58:58;6.10;99.90
59282;DHT22;45054;52.062;10.010;2024-02-26T10:01:25;6.10;99.90
59282;DHT22;45054;52.062;10.010;2024-02-26T10:03:55;6.10;99.90
59282;DHT22;45054;52.062;10.010;2024-02-26T10:06:22;6.10;99.90
59282;DHT22;45054;52.062;10.010;2024-02-26T10:08:47;6.10;99.90
59282;DHT22;45054;52.062;10.010;2024-02-26T10:11:15;6.10;99.90
59282;DHT22;45054;52.062;10.010;2024-02-26T10:13:41;6.10;99.90
59282;DHT22;45054;52.062;10.010;2024-02-26T10:16:07;6.10;99.90
59282;DHT22;45054;52.062;10.010;2024-02-26T10:18:47;6.10;99.90
59282;DHT22;45054;52.062;10.010;2024-02-26T10:21:12;6.10;99.90
59282;DHT22;45054;52.062;10.010;2024-02-26T10:23:38;6.10;99.90
59282;DHT22;45054;52.062;10.010;2024-02-26T10:26:03;6.20;99.90
59282;DHT22;45054;52.062;10.010;2024-02-26T10:28:30;6.20;99.90
59282;DHT22;45054;52.062;10.010;2024-02-26T10:30:56;6.20;99.90
59282;DHT22;45054;52.062;10.010;2024-02-26T10:33:22;6.20;99.90
59282;DHT22;45054;52.062;10.010;2024-02-26T10:35:49;6.30;99.90
59282;DHT22;45054;52.062;10.010;2024-02-26T10:38:14;6.30;99.90
59282;DHT22;45054;52.062;10.010;2024-02-26T10:40:40;6.30;99.90
59282;DHT22;45054;52.062;10.010;2024-02-26T10:43:05;6.20;99.90
59282;DHT22;45054;52.062;10.010;2024-02-26T10:45:32;6.30;99.90
59282;DHT22;45054;52.062;10.010;2024-02-26T10:47:57;6.30;99.90
59282;DHT22;45054;52.062;10.010;2024-02-26T10:50:24;6.40;99.90
59282;DHT22;45054;52.062;10.010;2024-02-26T10:52:52;6.40;99.90
59282;DHT22;45054;52.062;10.010;2024-02-26T10:55:18;6.50;99.90
59282;DHT22;45054;52.062;10.010;2024-02-26T10:57:46;6.50;99.90
59282;DHT22;45054;52.062;10.010;2024-02-26T11:00:14;6.60;99.90
59282;DHT22;45054;52.062;10.010;2024-02-26T11:02:40;6.60;99.90
59282;DHT22;45054;52.062;10.010;2024-02-26T11:05:07;6.60;99.90
59282;DHT22;45054;52.062;10.010;2024-02-26T11:07:34;6.70;99.90
59282;DHT22;45054;52.062;10.010;2024-02-26T11:10:03;6.70;99.90
59282;DHT22;45054;52.062;10.010;2024-02-26T11:12:30;6.80;99.90
59282;DHT22;45054;52.062;10.010;2024-02-26T11:14:56;6.80;99.90
59282;DHT22;45054;52.062;10.010;2024-02-26T11:17:22;6.80;99.90
59282;DHT22;45054;52.062;10.010;2024-02-26T11:19:49;6.80;99.90
59282;DHT22;45054;52.062;10.010;2024-02-26T11:22:15;6.90;99.90
59282;DHT22;45054;52.062;10.010;2024-02-26T11:24:41;6.90;99.90
59282;DHT22;45054;52.062;10.010;2024-02-26T11:27:10;6.80;99.90
59282;DHT22;45054;52.062;10.010;2024-02-26T11:29:39;6.80;99.90
59282;DHT22;45054;52.062;10.010;2024-02-26T11:32:06;6.90;99.90
59282;DHT22;45054;52.062;10.010;2024-02-26T11:34:32;6.90;99.90
59282;DHT22;45054;52.062;10.010;2024-02-26T11:36:58;6.90;99.90
59282;DHT22;45054;52.062;10.010;2024-02-26T11:39:33;6.90;99.90
59282;DHT22;45054;52.062;10.010;2024-02-26T11:42:05;6.90;99.90
59282;DHT22;45054;52.062;10.010;2024-02-26T11:44:32;7.00;99.90
59282;DHT22;45054;52.062;10.010;2024-02-26T11:46:58;7.00;99.90
59282;DHT22;45054;52.062;10.010;2024-02-26T11:49:30;7.00;99.90
59282;DHT22;45054;52.062;10.010;2024-02-26T11:51:57;7.10;99.90
59282;DHT22;45054;52.062;10.010;2024-02-26T11:54:45;7.10;99.90
59282;DHT22;45054;52.062;10.010;2024-02-26T11:57:25;7.10;99.90
59282;DHT22;45054;52.062;10.010;2024-02-26T11:59:52;7.10;99.90
59282;DHT22;45054;52.062;10.010;2024-02-26T12:05:21;7.20;99.90
59282;DHT22;45054;52.062;10.010;2024-02-26T12:07:48;7.20;99.90
59282;DHT22;45054;52.062;10.010;2024-02-26T12:10:32;7.20;99.90
59282;DHT22;45054;52.062;10.010;2024-02-26T12:12:59;7.20;99.90
59282;DHT22;45054;52.062;10.010;2024-02-26T12:15:31;7.30;99.90
59282;DHT22;45054;52.062;10.010;2024-02-26T12:17:58;7.30;99.90
59282;DHT22;45054;52.062;10.010;2024-02-26T12:20:25;7.30;99.90
59282;DHT22;45054;52.062;10.010;2024-02-26T12:22:51;7.30;99.90
59282;DHT22;45054;52.062;10.010;2024-02-26T12:25:22;7.30;99.90
59282;DHT22;45054;52.062;10.010;2024-02-26T12:27:48;7.40;99.90
59282;DHT22;45054;52.062;10.010;2024-02-26T12:30:14;7.40;99.90
59282;DHT22;45054;52.062;10.010;2024-02-26T12:32:41;7.50;99.90
59282;DHT22;45054;52.062;10.010;2024-02-26T12:35:07;7.50;99.90
59282;DHT22;45054;52.062;10.010;2024-02-26T12:37:33;7.50;99.90
59282;DHT22;45054;52.062;10.010;2024-02-26T12:39:58;7.60;99.90
59282;DHT22;45054;52.062;10.010;2024-02-26T12:42:24;7.60;99.90
59282;DHT22;45054;52.062;10.010;2024-02-26T12:44:52;7.60;99.90
59282;DHT22;45054;52.062;10.010;2024-02-26T12:47:17;7.60;99.90
59282;DHT22;45054;52.062;10.010;2024-02-26T12:49:46;7.70;99.90
59282;DHT22;45054;52.062;10.010;2024-02-26T12:52:13;7.70;99.90
59282;DHT22;45054;52.062;10.010;2024-02-26T12:54:39;7.70;99.90
59282;DHT22;45054;52.062;10.010;2024-02-26T12:57:05;7.70;99.90
59282;DHT22;45054;52.062;10.010;2024-02-26T12:59:32;7.70;99.90
59282;DHT22;45054;52.062;10.010;2024-02-26T13:01:58;7.80;99.90
59282;DHT22;45054;52.062;10.010;2024-02-26T13:04:24;7.80;99.90
59282;DHT22;45054;52.062;10.010;2024-02-26T13:06:51;7.90;99.90
59282;DHT22;45054;52.062;10.010;2024-02-26T13:09:20;7.90;99.90
59282;DHT22;45054;52.062;10.010;2024-02-26T13:11:54;7.90;99.90
59282;DHT22;45054;52.062;10.010;2024-02-26T13:14:20;7.90;99.90
59282;DHT22;45054;52.062;10.010;2024-02-26T13:16:54;7.90;99.90
59282;DHT22;45054;52.062;10.010;2024-02-26T13:19:20;7.90;99.90
59282;DHT22;45054;52.062;10.010;2024-02-26T13:21:45;7.90;99.90
59282;DHT22;45054;52.062;10.010;2024-02-26T13:24:14;7.90;99.90
59282;DHT22;45054;52.062;10.010;2024-02-26T13:26:40;7.90;99.90
59282;DHT22;45054;52.062;10.010;2024-02-26T13:29:05;8.00;99.90
59282;DHT22;45054;52.062;10.010;2024-02-26T13:31:31;7.90;99.90
59282;DHT22;45054;52.062;10.010;2024-02-26T13:33:57;7.90;99.90
59282;DHT22;45054;52.062;10.010;2024-02-26T13:36:23;7.90;99.90
59282;DHT22;45054;52.062;10.010;2024-02-26T13:38:51;7.90;99.90
59282;DHT22;45054;52.062;10.010;2024-02-26T13:41:18;7.90;99.90
59282;DHT22;45054;52.062;10.010;2024-02-26T13:43:44;7.90;99.90
59282;DHT22;45054;52.062;10.010;2024-02-26T13:46:09;7.80;99.90
59282;DHT22;45054;52.062;10.010;2024-02-26T13:48:35;7.80;99.90
59282;DHT22;45054;52.062;10.010;2024-02-26T13:51:01;7.80;99.90
59282;DHT22;45054;52.062;10.010;2024-02-26T13:53:29;7.90;99.90
59282;DHT22;45054;52.062;10.010;2024-02-26T13:55:55;7.90;99.90
59282;DHT22;45054;52.062;10.010;2024-02-26T13:58:22;7.90;99.90
59282;DHT22;45054;52.062;10.010;2024-02-26T14:00:47;7.80;99.90
59282;DHT22;45054;52.062;10.010;2024-02-26T14:03:13;7.80;99.90
59282;DHT22;45054;52.062;10.010;2024-02-26T14:05:39;7.80;99.90
59282;DHT22;45054;52.062;10.010;2024-02-26T14:08:05;7.80;99.90
59282;DHT22;45054;52.062;10.010;2024-02-26T14:10:31;7.70;99.90
59282;DHT22;45054;52.062;10.010;2024-02-26T14:12:56;7.70;99.90
59282;DHT22;45054;52.062;10.010;2024-02-26T14:15:23;7.70;99.90
59282;DHT22;45054;52.062;10.010;2024-02-26T14:17:49;7.70;99.90
59282;DHT22;45054;52.062;10.010;2024-02-26T14:20:14;7.60;99.90
59282;DHT22;45054;52.062;10.010;2024-02-26T14:22:40;7.70;99.90
59282;DHT22;45054;52.062;10.010;2024-02-26T14:25:06;7.70;99.90
59282;DHT22;45054;52.062;10.010;2024-02-26T14:27:31;7.60;99.90
59282;DHT22;45054;52.062;10.010;2024-02-26T14:29:57;7.60;99.90
59282;DHT22;45054;52.062;10.010;2024-02-26T14:32:24;7.60;99.90
59282;DHT22;45054;52.062;10.010;2024-02-26T14:34:50;7.60;99.90
59282;DHT22;45054;52.062;10.010;2024-02-26T14:37:15;7.60;99.90
59282;DHT22;45054;52.062;10.010;2024-02-26T14:39:41;7.60;99.90
59282;DHT22;45054;52.062;10.010;2024-02-26T14:42:06;7.60;99.90
59282;DHT22;45054;52.062;10.010;2024-02-26T14:44:32;7.60;99.90
59282;DHT22;45054;52.062;10.010;2024-02-26T14:46:58;7.60;99.90
59282;DHT22;45054;52.062;10.010;2024-02-26T14:49:25;7.50;99.90
59282;DHT22;45054;52.062;10.010;2024-02-26T14:51:50;7.50;99.90
59282;DHT22;45054;52.062;10.010;2024-02-26T14:54:16;7.50;99.90
59282;DHT22;45054;52.062;10.010;2024-02-26T14:56:41;7.50;99.90
59282;DHT22;45054;52.062;10.010;2024-02-26T14:59:07;7.50;99.90
59282;DHT22;45054;52.062;10.010;2024-02-26T15:01:34;7.50;99.90
59282;DHT22;45054;52.062;10.010;2024-02-26T15:04:00;7.60;99.90
59282;DHT22;45054;52.062;10.010;2024-02-26T15:06:27;7.60;99.90
59282;DHT22;45054;52.062;10.010;2024-02-26T15:08:52;7.60;99.90
59282;DHT22;45054;52.062;10.010;2024-02-26T15:11:18;7.60;99.90
59282;DHT22;45054;52.062;10.010;2024-02-26T15:13:43;7.70;99.90
59282;DHT22;45054;52.062;10.010;2024-02-26T15:16:17;7.70;99.90
59282;DHT22;45054;52.062;10.010;2024-02-26T15:18:42;7.80;99.90
59282;DHT22;45054;52.062;10.010;2024-02-26T15:21:08;7.80;99.90
59282;DHT22;45054;52.062;10.010;2024-02-26T15:23:35;7.80;99.90
59282;DHT22;45054;52.062;10.010;2024-02-26T15:26:00;7.70;99.90